Time;durP1;ratioP1;P1;durP2;ratioP2;P2;SDS_P1;SDS_P2;PMS_P1;PMS_P2;Temp;Humidity;BMP_temperature;BMP_pressure;BME280_temperature;BME280_humidity;BME280_pressure;Samples;Min_cycle;Max_cycle;Signal;HPM_P1;HPM_P2
2022/05/24 00:00:01;;;;;;;;;;;;;;;13.43;100.00;100036.72;2612733;54;20070;-56
2022/05/24 00:02:29;;;;;;;;;;;;;;;13.46;100.00;100032.84;2612901;36;20037;-57
2022/05/24 00:04:58;;;;;;;;;;;;;;;13.48;100.00;100028.09;2613447;36;19958;-57
2022/05/24 00:07:29;;;;;;;;;;;;;;;13.46;100.00;100027.44;2617989;36;20043;-58
2022/05/24 00:09:57;;;;;;;;;;;;;;;13.65;100.00;100026.16;2613350;54;19947;-53
2022/05/24 00:12:26;;;;;;;;;;;;;;;13.58;100.00;100014.38;2619343;36;19962;-58
2022/05/24 00:17:39;;;;;;;;;;;;;;;13.55;100.00;100017.44;2618743;36;20399;-57
2022/05/24 00:20:09;;;;;;;;;;;;;;;13.49;100.00;100010.84;2612395;36;20034;-60
2022/05/24 00:22:38;;;;;;;;;;;;;;;13.51;100.00;100003.41;2609659;36;19950;-57
2022/05/24 00:25:07;;;;;;;;;;;;;;;13.49;100.00;100008.97;2609142;54;19977;-57
2022/05/24 00:30:18;;;;;;;;;;;;;;;13.48;100.00;100011.88;2611940;36;20516;-57
2022/05/24 00:32:48;;;;;;;;;;;;;;;13.47;100.00;100018.28;2609951;36;21943;-50
2022/05/24 00:37:55;;;;;;;;;;;;;;;13.54;100.00;100004.91;2612556;36;19952;-60
2022/05/24 00:40:29;;;;;;;;;;;;;;;13.56;100.00;100001.03;2612904;31;20044;-59
2022/05/24 00:42:57;;;;;;;;;;;;;;;13.62;100.00;100008.44;2613016;36;20077;-58
2022/05/24 00:45:32;;;;;;;;;;;;;;;13.51;100.00;99999.88;2612932;36;20030;-57
2022/05/24 00:48:03;;;;;;;;;;;;;;;13.47;100.00;99999.34;2613420;54;19997;-58
2022/05/24 00:55:57;;;;;;;;;;;;;;;13.50;100.00;100004.44;2612224;36;20041;-57
2022/05/24 00:58:31;;;;;;;;;;;;;;;13.51;100.00;99998.00;2613112;36;19951;-50
2022/05/24 01:01:03;;;;;;;;;;;;;;;13.50;100.00;100004.44;2613319;31;20041;-57
2022/05/24 01:03:31;;;;;;;;;;;;;;;13.59;100.00;99995.25;2612354;36;19983;-57
2022/05/24 01:05:59;;;;;;;;;;;;;;;13.51;100.00;99995.28;2613591;36;19960;-56
2022/05/24 01:08:27;;;;;;;;;;;;;;;13.43;100.00;99989.94;2613088;36;19985;-61
2022/05/24 01:13:40;;;;;;;;;;;;;;;13.48;100.00;99987.53;2612143;36;19972;-57
2022/05/24 01:16:11;;;;;;;;;;;;;;;13.58;100.00;99985.47;2610399;36;19950;-58
2022/05/24 01:18:48;;;;;;;;;;;;;;;13.51;100.00;99981.78;2610787;36;20026;-57
2022/05/24 01:21:18;;;;;;;;;;;;;;;13.57;100.00;99983.75;2607240;36;19974;-54
2022/05/24 01:26:21;;;;;;;;;;;;;;;13.56;100.00;99978.53;2610153;36;20541;-57
2022/05/24 01:36:09;;;;;;;;;;;;;;;13.60;100.00;99971.75;2611720;36;20005;-57
2022/05/24 01:37:05;;;;;;;;;;;;;;;13.62;100.00;99967.03;2611570;54;20404;-58
2022/05/24 01:41:59;;;;;;;;;;;;;;;13.64;100.00;99973.94;2612444;36;19973;-58
2022/05/24 01:44:31;;;;;;;;;;;;;;;13.74;100.00;99975.59;2610415;36;19950;-57
2022/05/24 01:47:03;;;;;;;;;;;;;;;13.78;100.00;99985.00;2611626;54;19976;-53
2022/05/24 01:49:34;;;;;;;;;;;;;;;13.75;100.00;99979.94;2610228;31;20452;-58
2022/05/24 01:54:36;;;;;;;;;;;;;;;13.76;100.00;99987.06;2611896;36;19954;-56
2022/05/24 01:57:07;;;;;;;;;;;;;;;13.70;100.00;99983.19;2610317;36;19950;-59
2022/05/24 01:59:36;;;;;;;;;;;;;;;13.71;100.00;99987.59;2612971;36;20351;-57
2022/05/24 02:02:08;;;;;;;;;;;;;;;13.77;100.00;99983.34;2610569;36;20480;-57
2022/05/24 02:04:36;;;;;;;;;;;;;;;13.66;100.00;99982.72;2609107;36;20033;-58
2022/05/24 02:07:07;;;;;;;;;;;;;;;13.66;100.00;99984.56;2609367;36;19950;-59
2022/05/24 02:09:35;;;;;;;;;;;;;;;13.69;100.00;99986.06;2609757;36;19957;-57
2022/05/24 02:14:33;;;;;;;;;;;;;;;13.60;100.00;99986.16;2611085;36;21446;-51
2022/05/24 02:22:11;;;;;;;;;;;;;;;13.61;100.00;99998.63;2610073;36;19962;-58
2022/05/24 02:27:13;;;;;;;;;;;;;;;13.36;100.00;100007.88;2606352;36;19969;-57
2022/05/24 02:29:41;;;;;;;;;;;;;;;13.31;100.00;100006.50;2609688;36;20061;-55
2022/05/24 02:32:10;;;;;;;;;;;;;;;13.30;100.00;100003.97;2611139;36;19943;-58
2022/05/24 02:37:22;;;;;;;;;;;;;;;13.32;100.00;99994.69;2609609;36;19953;-58
2022/05/24 02:42:31;;;;;;;;;;;;;;;13.24;100.00;99997.41;2610054;36;19946;-58
2022/05/24 02:44:59;;;;;;;;;;;;;;;13.17;100.00;100007.22;2609487;31;20070;-62
2022/05/24 02:47:27;;;;;;;;;;;;;;;13.07;100.00;99999.34;2610980;36;19993;-57
2022/05/24 02:49:56;;;;;;;;;;;;;;;13.03;100.00;100021.44;2611427;54;20065;-60
2022/05/24 02:52:27;;;;;;;;;;;;;;;13.03;100.00;100010.63;2610961;31;20387;-58
2022/05/24 02:54:56;;;;;;;;;;;;;;;13.00;100.00;100011.84;2604043;36;20336;-57
2022/05/24 02:57:39;;;;;;;;;;;;;;;12.99;100.00;100003.91;2610725;54;19979;-63
2022/05/24 03:00:10;;;;;;;;;;;;;;;12.87;100.00;100006.97;2599223;36;20460;-61
2022/05/24 03:02:38;;;;;;;;;;;;;;;12.81;100.00;100013.06;2607272;36;19946;-58
2022/05/24 03:05:07;;;;;;;;;;;;;;;12.72;100.00;100003.28;2610492;36;19963;-58
2022/05/24 03:10:18;;;;;;;;;;;;;;;12.66;100.00;100012.06;2610043;36;19950;-61
2022/05/24 03:15:28;;;;;;;;;;;;;;;12.54;100.00;100008.88;2612702;36;19946;-57
2022/05/24 03:17:56;;;;;;;;;;;;;;;12.43;100.00;100001.97;2610602;36;20013;-57
2022/05/24 03:20:25;;;;;;;;;;;;;;;12.33;100.00;100012.94;2613117;31;20906;-57
2022/05/24 03:22:56;;;;;;;;;;;;;;;12.32;100.00;100018.50;2610754;36;19951;-58
2022/05/24 03:27:52;;;;;;;;;;;;;;;12.32;100.00;100031.97;2611386;54;19939;-58
2022/05/24 03:30:21;;;;;;;;;;;;;;;12.35;100.00;100012.75;2609938;36;19955;-61
2022/05/24 03:32:51;;;;;;;;;;;;;;;12.46;100.00;100022.38;2611141;36;20325;-57
2022/05/24 03:35:19;;;;;;;;;;;;;;;12.45;100.00;100013.44;2609556;36;20030;-59
2022/05/24 03:37:47;;;;;;;;;;;;;;;12.48;100.00;100005.00;2611099;36;20481;-58
2022/05/24 03:40:18;;;;;;;;;;;;;;;12.36;100.00;100000.97;2610008;36;20451;-60
2022/05/24 03:42:51;;;;;;;;;;;;;;;12.31;100.00;100004.16;2609374;36;20046;-58
2022/05/24 03:45:20;;;;;;;;;;;;;;;12.40;100.00;100010.41;2610967;36;20065;-57
2022/05/24 03:50:27;;;;;;;;;;;;;;;12.36;100.00;100015.28;2612289;36;19970;-58
2022/05/24 03:52:56;;;;;;;;;;;;;;;12.31;100.00;100016.78;2611537;36;19970;-58
2022/05/24 03:55:26;;;;;;;;;;;;;;;12.24;100.00;100020.16;2611748;36;19974;-56
2022/05/24 04:00:46;;;;;;;;;;;;;;;12.24;100.00;100022.03;2617528;36;19989;-59
2022/05/24 04:05:59;;;;;;;;;;;;;;;12.27;100.00;100016.31;2612269;54;20462;-58
2022/05/24 04:08:29;;;;;;;;;;;;;;;12.15;100.00;100018.50;2610542;36;20078;-58
2022/05/24 04:11:04;;;;;;;;;;;;;;;12.19;100.00;100025.25;2612048;54;19950;-57
2022/05/24 04:13:33;;;;;;;;;;;;;;;12.13;100.00;100033.16;2609549;36;20451;-58
2022/05/24 04:16:16;;;;;;;;;;;;;;;12.18;100.00;100030.81;2611357;31;19954;-58
2022/05/24 04:21:23;;;;;;;;;;;;;;;12.14;100.00;100024.06;2610674;36;19946;-58
2022/05/24 04:23:52;;;;;;;;;;;;;;;12.15;100.00;100018.50;2614031;54;20038;-58
2022/05/24 04:26:23;;;;;;;;;;;;;;;12.15;100.00;100015.78;2610098;36;20066;-54
2022/05/24 04:31:37;;;;;;;;;;;;;;;12.29;100.00;100029.63;2609256;54;19946;-58
2022/05/24 04:34:06;;;;;;;;;;;;;;;12.40;100.00;100032.84;2616801;36;20030;-58
2022/05/24 04:39:18;;;;;;;;;;;;;;;12.44;100.00;100049.56;2616528;36;20039;-59
2022/05/24 04:47:13;;;;;;;;;;;;;;;12.42;100.00;100055.09;2615524;36;19990;-58
2022/05/24 04:49:44;;;;;;;;;;;;;;;12.38;100.00;100056.47;2615460;36;19954;-58
2022/05/24 04:52:14;;;;;;;;;;;;;;;12.42;100.00;100067.75;2611061;31;20108;-58
2022/05/24 04:54:44;;;;;;;;;;;;;;;12.33;100.00;100072.28;2610314;36;19969;-57
2022/05/24 04:57:12;;;;;;;;;;;;;;;12.32;100.00;100067.06;2611794;47;20058;-57
2022/05/24 05:02:22;;;;;;;;;;;;;;;12.63;100.00;100059.13;2611291;36;19953;-56
2022/05/24 05:04:50;;;;;;;;;;;;;;;12.59;100.00;100047.84;2610479;54;19954;-58
2022/05/24 05:07:19;;;;;;;;;;;;;;;12.50;100.00;100065.06;2610359;36;20452;-56
2022/05/24 05:09:49;;;;;;;;;;;;;;;12.60;100.00;100065.75;2610218;54;20425;-58
2022/05/24 05:14:59;;;;;;;;;;;;;;;12.48;100.00;100095.94;2611590;54;20428;-59
2022/05/24 05:20:04;;;;;;;;;;;;;;;12.57;100.00;100105.72;2611577;36;20491;-58
2022/05/24 05:22:32;;;;;;;;;;;;;;;12.65;100.00;100091.38;2611597;36;19954;-57
2022/05/24 05:25:00;;;;;;;;;;;;;;;12.61;100.00;100080.91;2610943;54;20038;-58
2022/05/24 05:27:29;;;;;;;;;;;;;;;12.74;100.00;100095.78;2615260;36;19946;-59
2022/05/24 05:32:45;;;;;;;;;;;;;;;12.95;100.00;100101.47;2615008;36;19959;-58
2022/05/24 05:35:17;;;;;;;;;;;;;;;13.00;100.00;100108.22;2611695;36;20436;-58
2022/05/24 05:37:59;;;;;;;;;;;;;;;12.92;100.00;100109.91;2612144;36;20062;-57
2022/05/24 05:40:28;;;;;;;;;;;;;;;12.89;100.00;100123.78;2611308;36;19971;-57
2022/05/24 05:42:57;;;;;;;;;;;;;;;12.89;100.00;100112.13;2609790;36;19985;-58
2022/05/24 05:45:32;;;;;;;;;;;;;;;12.98;100.00;100119.22;2613451;36;20022;-58
2022/05/24 05:48:01;;;;;;;;;;;;;;;13.06;100.00;100115.66;2611328;36;19951;-59
2022/05/24 05:50:31;;;;;;;;;;;;;;;13.14;100.00;100127.28;2612548;36;20463;-59
2022/05/24 05:53:03;;;;;;;;;;;;;;;13.12;100.00;100128.50;2612814;36;20399;-59
2022/05/24 05:55:32;;;;;;;;;;;;;;;13.06;100.00;100138.13;2612742;39;20347;-61
2022/05/24 05:58:00;;;;;;;;;;;;;;;13.04;100.00;100121.22;2613085;36;20637;-56
2022/05/24 06:00:28;;;;;;;;;;;;;;;13.19;100.00;100124.09;2612069;36;19946;-58
2022/05/24 06:02:57;;;;;;;;;;;;;;;13.12;100.00;100136.59;2613435;54;20478;-58
2022/05/24 06:05:27;;;;;;;;;;;;;;;13.20;100.00;100131.16;2612975;54;19947;-58
2022/05/24 06:07:59;;;;;;;;;;;;;;;13.11;100.00;100124.09;2613197;36;19959;-58
2022/05/24 06:10:28;;;;;;;;;;;;;;;13.12;100.00;100115.81;2612887;36;19943;-57
2022/05/24 06:12:58;;;;;;;;;;;;;;;13.25;100.00;100109.91;2613094;36;19951;-58
2022/05/24 06:15:27;;;;;;;;;;;;;;;13.12;100.00;100102.31;2612548;36;19950;-56
2022/05/24 06:23:02;;;;;;;;;;;;;;;13.23;100.00;100130.81;2612922;54;20001;-57
2022/05/24 06:25:32;;;;;;;;;;;;;;;13.27;100.00;100126.78;2612655;36;20049;-59
2022/05/24 06:28:01;;;;;;;;;;;;;;;13.15;100.00;100123.59;2611102;36;20066;-60
2022/05/24 06:30:29;;;;;;;;;;;;;;;13.25;100.00;100142.31;2611492;36;19954;-58
2022/05/24 06:35:37;;;;;;;;;;;;;;;13.14;100.00;100154.31;2617243;36;20451;-58
2022/05/24 06:40:47;;;;;;;;;;;;;;;13.38;100.00;100166.13;2613239;54;19945;-59
2022/05/24 06:43:17;;;;;;;;;;;;;;;13.44;100.00;100167.31;2612430;36;19951;-58
2022/05/24 06:48:19;;;;;;;;;;;;;;;13.27;100.00;100167.31;2615955;32;20362;-61
2022/05/24 06:50:47;;;;;;;;;;;;;;;13.26;100.00;100178.28;2609743;36;20038;-58
2022/05/24 06:53:17;;;;;;;;;;;;;;;13.42;100.00;100177.47;2609923;31;19966;-58
2022/05/24 06:55:48;;;;;;;;;;;;;;;13.41;100.00;100189.28;2600630;31;20493;-59
2022/05/24 06:58:16;;;;;;;;;;;;;;;13.56;100.00;100189.41;2606863;36;20555;-58
2022/05/24 07:03:25;;;;;;;;;;;;;;;13.33;100.00;100185.53;2612662;39;20289;-60
2022/05/24 07:08:32;;;;;;;;;;;;;;;13.61;100.00;100187.88;2612381;36;19953;-58
2022/05/24 07:16:09;;;;;;;;;;;;;;;13.79;100.00;100195.78;2625229;36;19955;-60
2022/05/24 07:18:37;;;;;;;;;;;;;;;14.20;100.00;100187.50;2611639;36;20507;-58
2022/05/24 07:21:06;;;;;;;;;;;;;;;14.63;100.00;100191.72;2611855;36;19947;-57
2022/05/24 07:23:38;;;;;;;;;;;;;;;14.26;100.00;100180.56;2613164;36;19946;-58
2022/05/24 07:26:11;;;;;;;;;;;;;;;14.35;100.00;100200.31;2615408;36;20019;-58
2022/05/24 07:28:39;;;;;;;;;;;;;;;14.25;100.00;100187.00;2617852;36;19950;-63
2022/05/24 07:47:06;;;;;;;;;;;;;;;13.95;100.00;100221.94;2613836;36;20534;-58
2022/05/24 07:52:18;;;;;;;;;;;;;;;13.46;100.00;100241.00;2616540;36;20058;-57
2022/05/24 07:54:46;;;;;;;;;;;;;;;13.30;100.00;100249.91;2622948;36;19962;-58
2022/05/24 08:02:29;;;;;;;;;;;;;;;13.57;100.00;100248.72;2613085;36;20030;-59
2022/05/24 08:04:57;;;;;;;;;;;;;;;13.92;100.00;100252.06;2613453;54;20041;-63
2022/05/24 08:07:27;;;;;;;;;;;;;;;13.77;100.00;100246.50;2606168;36;19980;-62
2022/05/24 08:09:55;;;;;;;;;;;;;;;13.76;100.00;100252.09;2613121;54;20046;-57
2022/05/24 08:14:50;;;;;;;;;;;;;;;13.58;100.00;100263.94;2611339;36;19954;-59
2022/05/24 08:17:18;;;;;;;;;;;;;;;13.25;100.00;100274.75;2612716;36;21047;-59
2022/05/24 08:19:46;;;;;;;;;;;;;;;13.30;100.00;100290.44;2613025;36;19957;-61
2022/05/24 08:22:14;;;;;;;;;;;;;;;13.53;100.00;100290.66;2612397;36;19973;-54
2022/05/24 08:24:45;;;;;;;;;;;;;;;13.10;100.00;100271.88;2612972;36;19953;-55
2022/05/24 08:27:14;;;;;;;;;;;;;;;13.03;100.00;100275.38;2613002;36;19973;-57
2022/05/24 08:29:42;;;;;;;;;;;;;;;13.18;100.00;100267.47;2612699;36;19947;-56
2022/05/24 08:32:10;;;;;;;;;;;;;;;12.97;100.00;100276.91;2613680;36;19965;-56
2022/05/24 08:34:38;;;;;;;;;;;;;;;12.85;100.00;100276.34;2615539;36;20009;-59
2022/05/24 08:37:07;;;;;;;;;;;;;;;12.94;100.00;100280.78;2612846;31;19993;-58
2022/05/24 08:50:17;;;;;;;;;;;;;;;12.47;100.00;100265.13;2613739;36;19953;-53
2022/05/24 08:52:47;;;;;;;;;;;;;;;12.71;100.00;100272.44;2613496;36;20359;-50
2022/05/24 08:55:16;;;;;;;;;;;;;;;13.00;100.00;100281.13;2613850;36;20418;-56
2022/05/24 09:00:42;;;;;;;;;;;;;;;13.72;100.00;100277.78;2614926;36;19961;-56
2022/05/24 09:03:15;;;;;;;;;;;;;;;14.36;100.00;100283.22;2615651;36;20070;-56
2022/05/24 09:05:50;;;;;;;;;;;;;;;14.36;100.00;100275.94;2613144;36;20053;-56
2022/05/24 09:10:48;;;;;;;;;;;;;;;14.70;100.00;100274.78;2608154;36;20504;-58
2022/05/24 09:13:23;;;;;;;;;;;;;;;15.17;100.00;100280.28;2612860;31;20885;-57
2022/05/24 09:16:01;;;;;;;;;;;;;;;15.35;100.00;100286.22;2613010;36;19954;-56
2022/05/24 09:27:02;;;;;;;;;;;;;;;15.34;100.00;100303.53;2614389;36;19953;-58
2022/05/24 09:29:31;;;;;;;;;;;;;;;15.44;100.00;100310.56;2617816;31;20443;-54
2022/05/24 09:32:07;;;;;;;;;;;;;;;15.37;100.00;100308.59;2613510;47;19954;-58
2022/05/24 09:34:36;;;;;;;;;;;;;;;15.13;100.00;100311.47;2615178;31;20374;-58
2022/05/24 09:37:05;;;;;;;;;;;;;;;14.99;100.00;100313.94;2613040;36;19958;-61
2022/05/24 09:39:35;;;;;;;;;;;;;;;14.89;100.00;100319.56;2612726;36;19950;-58
2022/05/24 09:42:05;;;;;;;;;;;;;;;14.65;100.00;100325.09;2613353;36;19969;-57
2022/05/24 09:44:45;;;;;;;;;;;;;;;14.14;100.00;100336.22;2613676;54;19954;-58
2022/05/24 09:47:22;;;;;;;;;;;;;;;14.61;100.00;100342.69;2613339;36;19962;-57
2022/05/24 09:49:50;;;;;;;;;;;;;;;14.89;100.00;100340.41;2613921;36;19954;-59
2022/05/24 09:54:53;;;;;;;;;;;;;;;14.55;100.00;100379.44;2611470;36;19985;-59
2022/05/24 10:00:00;;;;;;;;;;;;;;;13.20;100.00;100404.09;2616505;36;19954;-54
2022/05/24 10:02:32;;;;;;;;;;;;;;;13.07;100.00;100417.22;2614102;36;19954;-50
2022/05/24 10:05:02;;;;;;;;;;;;;;;13.04;100.00;100409.47;2612079;36;19984;-50
2022/05/24 10:15:25;;;;;;;;;;;;;;;14.85;100.00;100426.59;2612743;54;19989;-54
2022/05/24 10:18:00;;;;;;;;;;;;;;;14.97;100.00;100423.50;2613277;39;20309;-52
2022/05/24 10:23:20;;;;;;;;;;;;;;;15.45;100.00;100418.03;2614916;36;20363;-54
2022/05/24 10:31:22;;;;;;;;;;;;;;;14.35;100.00;100455.66;2612756;54;19955;-52
2022/05/24 10:39:09;;;;;;;;;;;;;;;14.58;100.00;100468.47;2613141;54;20093;-54
2022/05/24 10:41:45;;;;;;;;;;;;;;;14.70;100.00;100472.53;2616050;36;19946;-52
2022/05/24 10:47:01;;;;;;;;;;;;;;;15.18;100.00;100461.72;2611906;36;19981;-52
2022/05/24 10:49:39;;;;;;;;;;;;;;;15.61;100.00;100466.75;2613299;31;19950;-57
2022/05/24 11:04:54;;;;;;;;;;;;;;;15.33;100.00;100479.97;2614867;54;21296;-55
2022/05/24 11:07:24;;;;;;;;;;;;;;;15.54;100.00;100482.03;2613656;36;19977;-57
2022/05/24 11:14:54;;;;;;;;;;;;;;;15.50;100.00;100486.13;2612057;36;20038;-53
2022/05/24 11:19:51;;;;;;;;;;;;;;;15.69;100.00;100480.25;2613842;54;19947;-61
2022/05/24 11:22:28;;;;;;;;;;;;;;;16.03;100.00;100487.19;2608137;36;19953;-57
2022/05/24 11:30:14;;;;;;;;;;;;;;;16.55;100.00;100496.44;2612533;36;19953;-59
2022/05/24 11:35:35;;;;;;;;;;;;;;;16.46;100.00;100490.22;2612886;36;19957;-60
2022/05/24 11:43:49;;;;;;;;;;;;;;;15.62;100.00;100500.13;2612718;54;19971;-58
2022/05/24 11:48:46;;;;;;;;;;;;;;;15.68;100.00;100511.13;2614278;39;20437;-58
2022/05/24 11:51:29;;;;;;;;;;;;;;;15.89;100.00;100515.13;2613919;36;19947;-58
2022/05/24 11:54:02;;;;;;;;;;;;;;;16.16;100.00;100516.44;2611717;36;20016;-60
2022/05/24 11:56:30;;;;;;;;;;;;;;;16.71;100.00;100522.59;2612884;36;19951;-62
2022/05/24 11:59:01;;;;;;;;;;;;;;;17.52;100.00;100525.44;2613480;36;20363;-59
2022/05/24 12:01:53;;;;;;;;;;;;;;;16.98;100.00;100525.75;2613289;36;20073;-58
2022/05/24 12:12:23;;;;;;;;;;;;;;;17.50;100.00;100522.09;2613831;36;19954;-62
2022/05/24 12:15:00;;;;;;;;;;;;;;;17.81;100.00;100522.84;2618355;36;19939;-60
2022/05/24 12:17:29;;;;;;;;;;;;;;;17.18;100.00;100526.03;2613409;36;19979;-63
2022/05/24 12:19:57;;;;;;;;;;;;;;;16.98;100.00;100528.47;2612776;36;20073;-59
2022/05/24 12:22:27;;;;;;;;;;;;;;;17.44;100.00;100541.03;2605350;36;19958;-58
2022/05/24 12:25:00;;;;;;;;;;;;;;;17.74;100.00;100543.72;2608785;36;19996;-58
2022/05/24 12:30:06;;;;;;;;;;;;;;;17.39;100.00;100536.16;2613332;36;19963;-61
2022/05/24 12:37:51;;;;;;;;;;;;;;;17.48;100.00;100553.22;2618467;36;19981;-57
2022/05/24 12:40:23;;;;;;;;;;;;;;;18.20;100.00;100549.69;2614009;31;20404;-59
2022/05/24 12:42:54;;;;;;;;;;;;;;;18.14;100.00;100553.22;2613909;36;19966;-59
2022/05/24 12:47:59;;;;;;;;;;;;;;;18.26;100.00;100556.25;2613488;36;19953;-59
2022/05/24 12:50:30;;;;;;;;;;;;;;;19.56;100.00;100561.44;2613283;36;20001;-61
2022/05/24 12:53:05;;;;;;;;;;;;;;;19.89;100.00;100553.41;2613530;54;19947;-62
2022/05/24 12:58:27;;;;;;;;;;;;;;;18.68;100.00;100567.31;2613537;36;20062;-58
2022/05/24 13:03:26;;;;;;;;;;;;;;;19.19;100.00;100558.94;2611163;36;20360;-62
2022/05/24 13:05:55;;;;;;;;;;;;;;;18.91;100.00;100559.78;2611918;36;19978;-59
2022/05/24 13:08:25;;;;;;;;;;;;;;;18.37;100.00;100571.25;2612468;36;19962;-63
2022/05/24 13:10:56;;;;;;;;;;;;;;;17.89;100.00;100563.59;2612136;36;19957;-57
2022/05/24 13:13:24;;;;;;;;;;;;;;;18.32;100.00;100580.00;2611874;36;20038;-59
2022/05/24 13:15:54;;;;;;;;;;;;;;;18.42;100.00;100585.13;2611350;36;19969;-58
2022/05/24 13:18:22;;;;;;;;;;;;;;;18.20;100.00;100597.91;2613655;36;20049;-58
2022/05/24 13:20:55;;;;;;;;;;;;;;;17.92;100.00;100595.03;2614271;54;20069;-59
2022/05/24 13:23:26;;;;;;;;;;;;;;;18.16;100.00;100596.59;2607155;36;19953;-63
2022/05/24 13:25:58;;;;;;;;;;;;;;;17.59;100.00;100612.59;2613265;36;20521;-58
2022/05/24 13:28:37;;;;;;;;;;;;;;;17.78;100.00;100605.75;2609325;36;21672;-58
2022/05/24 13:33:51;;;;;;;;;;;;;;;20.04;100.00;100586.03;2611251;36;19994;-60
2022/05/24 13:36:21;;;;;;;;;;;;;;;19.36;100.00;100602.25;2613700;36;20020;-58
2022/05/24 13:41:27;;;;;;;;;;;;;;;17.30;100.00;100600.69;2610724;36;19947;-58
2022/05/24 13:46:48;;;;;;;;;;;;;;;18.81;100.00;100605.59;2612101;36;19958;-59
2022/05/24 13:49:28;;;;;;;;;;;;;;;19.87;100.00;100603.81;2618965;36;19963;-58
2022/05/24 13:51:56;;;;;;;;;;;;;;;19.83;100.00;100610.72;2612256;36;20078;-61
2022/05/24 13:54:36;;;;;;;;;;;;;;;18.53;100.00;100609.13;2611972;31;19958;-58
2022/05/24 13:57:08;;;;;;;;;;;;;;;18.12;100.00;100619.78;2612010;36;19954;-59
2022/05/24 13:59:39;;;;;;;;;;;;;;;18.29;100.00;100623.97;2613486;36;20412;-61
2022/05/24 14:02:13;;;;;;;;;;;;;;;18.65;100.00;100619.50;2613519;36;20004;-59
2022/05/24 14:04:42;;;;;;;;;;;;;;;19.42;100.00;100626.03;2613978;36;19955;-60
2022/05/24 14:07:12;;;;;;;;;;;;;;;19.43;100.00;100622.25;2613403;36;20046;-62
2022/05/24 14:09:40;;;;;;;;;;;;;;;19.17;100.00;100620.19;2612429;36;20046;-59
2022/05/24 14:12:13;;;;;;;;;;;;;;;19.03;100.00;100630.16;2613751;36;20383;-62
2022/05/24 14:14:48;;;;;;;;;;;;;;;19.13;100.00;100638.84;2613812;54;19950;-58
2022/05/24 14:17:16;;;;;;;;;;;;;;;18.54;100.00;100632.63;2611899;36;19952;-59
2022/05/24 14:19:44;;;;;;;;;;;;;;;19.03;100.00;100624.69;2611804;36;19946;-59
2022/05/24 14:22:12;;;;;;;;;;;;;;;19.72;100.00;100634.81;2612904;36;19977;-59
2022/05/24 14:24:43;;;;;;;;;;;;;;;20.09;100.00;100629.13;2613108;36;20058;-59
2022/05/24 14:27:22;;;;;;;;;;;;;;;20.30;100.00;100634.47;2612898;31;20045;-59
2022/05/24 14:30:04;;;;;;;;;;;;;;;20.16;100.00;100635.47;2606635;36;19981;-64
2022/05/24 14:32:33;;;;;;;;;;;;;;;19.28;100.00;100646.09;2612148;36;19951;-59
2022/05/24 14:35:02;;;;;;;;;;;;;;;19.28;100.00;100637.91;2608271;36;19956;-59
2022/05/24 14:37:30;;;;;;;;;;;;;;;19.93;100.00;100647.56;2611886;36;19947;-62
2022/05/24 14:39:59;;;;;;;;;;;;;;;19.96;100.00;100651.75;2611632;36;19962;-62
2022/05/24 14:42:30;;;;;;;;;;;;;;;19.94;100.00;100651.97;2613079;31;20432;-60
2022/05/24 14:44:59;;;;;;;;;;;;;;;20.57;100.00;100648.19;2610855;36;20046;-61
2022/05/24 14:47:27;;;;;;;;;;;;;;;20.75;95.86;100655.81;2611983;54;19950;-59
2022/05/24 14:49:55;;;;;;;;;;;;;;;20.34;97.37;100658.63;2611318;36;20054;-60
2022/05/24 14:55:01;;;;;;;;;;;;;;;19.44;100.00;100664.88;2611499;36;20355;-59
2022/05/24 14:57:32;;;;;;;;;;;;;;;19.06;100.00;100665.22;2613338;36;20525;-59
2022/05/24 15:00:00;;;;;;;;;;;;;;;18.40;100.00;100674.38;2612678;36;20046;-63
2022/05/24 15:02:28;;;;;;;;;;;;;;;19.18;100.00;100666.34;2613611;36;20021;-59
2022/05/24 15:04:56;;;;;;;;;;;;;;;20.02;100.00;100671.97;2612752;36;20440;-64
2022/05/24 15:15:39;;;;;;;;;;;;;;;19.75;100.00;100683.56;2610277;36;20552;-59
2022/05/24 15:18:08;;;;;;;;;;;;;;;20.56;100.00;100690.22;2612617;31;19950;-64
2022/05/24 15:23:06;;;;;;;;;;;;;;;20.17;99.92;100680.88;2613263;36;20450;-60
2022/05/24 15:25:36;;;;;;;;;;;;;;;20.71;93.98;100681.06;2612279;36;20482;-64
2022/05/24 15:28:11;;;;;;;;;;;;;;;20.63;95.42;100682.06;2612583;36;20007;-60
2022/05/24 15:30:39;;;;;;;;;;;;;;;21.05;97.41;100681.94;2615145;36;19951;-60
2022/05/24 15:38:26;;;;;;;;;;;;;;;19.98;100.00;100698.00;2618886;36;19973;-59
2022/05/24 15:40:58;;;;;;;;;;;;;;;20.26;100.00;100693.31;2613857;36;19946;31
2022/05/24 15:46:10;;;;;;;;;;;;;;;20.18;100.00;100709.84;2614188;36;20414;-58
2022/05/24 15:48:39;;;;;;;;;;;;;;;19.32;100.00;100710.16;2613604;36;19946;-59
2022/05/24 15:51:07;;;;;;;;;;;;;;;18.45;100.00;100721.00;2614321;39;20414;-60
2022/05/24 15:53:39;;;;;;;;;;;;;;;19.16;100.00;100725.75;2612539;36;19957;-58
2022/05/24 15:56:10;;;;;;;;;;;;;;;19.28;100.00;100725.22;2614158;36;20038;-60
2022/05/24 15:58:39;;;;;;;;;;;;;;;19.42;100.00;100716.94;2611878;36;19955;-61
2022/05/24 16:03:56;;;;;;;;;;;;;;;21.22;83.35;100721.53;2614428;36;20467;-58
2022/05/24 16:12:01;;;;;;;;;;;;;;;19.10;100.00;100745.63;2617464;36;19954;-61
2022/05/24 16:14:33;;;;;;;;;;;;;;;18.91;100.00;100742.50;2612685;36;19993;-57
2022/05/24 16:17:02;;;;;;;;;;;;;;;18.92;100.00;100748.81;2612763;36;19990;-61
2022/05/24 16:19:37;;;;;;;;;;;;;;;18.80;100.00;100748.44;2613248;36;19970;-59
2022/05/24 16:22:08;;;;;;;;;;;;;;;18.24;100.00;100751.78;2616979;31;20478;-59
2022/05/24 16:24:36;;;;;;;;;;;;;;;18.24;100.00;100746.31;2611472;54;20030;-58
2022/05/24 16:27:07;;;;;;;;;;;;;;;17.94;100.00;100750.91;2612858;36;19946;-59
2022/05/24 16:32:15;;;;;;;;;;;;;;;19.12;100.00;100749.00;2619431;36;20368;-61
2022/05/24 16:34:48;;;;;;;;;;;;;;;18.53;100.00;100747.28;2612935;36;20030;-58
2022/05/24 16:37:16;;;;;;;;;;;;;;;18.40;100.00;100756.13;2605725;36;20041;-58
2022/05/24 16:39:44;;;;;;;;;;;;;;;18.68;100.00;100758.16;2612582;36;19950;-58
2022/05/24 16:44:45;;;;;;;;;;;;;;;20.17;94.55;100751.91;2612791;36;19953;-58
2022/05/24 16:47:13;;;;;;;;;;;;;;;19.69;93.39;100759.97;2614140;36;20360;-58
2022/05/24 16:49:41;;;;;;;;;;;;;;;19.25;97.34;100760.03;2613269;36;20507;-59
2022/05/24 16:52:12;;;;;;;;;;;;;;;19.08;91.26;100766.81;2612807;36;19951;-60
2022/05/24 17:03:02;;;;;;;;;;;;;;;19.13;100.00;100767.06;2615058;36;19946;-58
2022/05/24 17:05:32;;;;;;;;;;;;;;;19.68;95.97;100759.13;2612597;36;20012;-58
2022/05/24 17:08:03;;;;;;;;;;;;;;;19.67;91.37;100762.06;2610447;36;19946;-61
2022/05/24 17:10:33;;;;;;;;;;;;;;;19.23;90.65;100767.59;2608782;36;19951;-58
2022/05/24 17:13:01;;;;;;;;;;;;;;;19.48;100.00;100769.03;2611417;36;19962;-58
2022/05/24 17:15:30;;;;;;;;;;;;;;;19.59;96.87;100776.69;2612220;36;19946;-58
2022/05/24 17:17:58;;;;;;;;;;;;;;;19.59;79.66;100784.88;2611924;36;20042;-58
2022/05/24 17:20:28;;;;;;;;;;;;;;;19.02;86.68;100792.13;2611934;36;20049;-63
2022/05/24 17:22:57;;;;;;;;;;;;;;;18.55;97.03;100789.69;2612133;36;20394;-58
2022/05/24 17:25:28;;;;;;;;;;;;;;;18.90;97.47;100794.50;2612323;36;19946;-59
2022/05/24 17:27:57;;;;;;;;;;;;;;;18.92;94.79;100797.91;2612930;31;20378;-61
2022/05/24 17:30:27;;;;;;;;;;;;;;;18.91;90.71;100790.75;2610888;31;19950;-62
2022/05/24 17:33:02;;;;;;;;;;;;;;;19.02;89.01;100803.03;2614277;36;20316;31
2022/05/24 17:35:30;;;;;;;;;;;;;;;18.63;92.81;100813.25;2610171;36;20368;-58
2022/05/24 17:37:58;;;;;;;;;;;;;;;18.51;98.99;100807.44;2612542;36;19954;-58
2022/05/24 17:40:31;;;;;;;;;;;;;;;18.40;92.12;100816.09;2612592;31;20066;-58
2022/05/24 17:43:00;;;;;;;;;;;;;;;18.36;100.00;100809.34;2605650;36;19955;-62